Leeds, Massachusetts
Current Conditions -  °F | °C
As of 7:53 PM on Monday 22 Dec 2014 (Local Time) from KBAF Reporting Station
Overcast Overcast  
Wind Chill: 38°   Ceiling: 1300
Heat Index: 38°   Visibility: 10mi
Dew Point: 33°   Wind: 3mph
Humidity: 83%   Direction: 330°NNW
Pressure: 30.3"   Gusts: NA
Location:  42.35°N, 72.7°W
Report Text: KBAF 230053Z 33003KT 10SM OVC013 03/01 A3030 RMK AO2 SLP267 T00330006
Loading
Personal Weather Stations






























Interactive Weather Map New forecast layout! Learn more

10-Day Weather Forecast

Advertisements
Track Severe Weather on mobile